Time;durP1;ratioP1;P1;durP2;ratioP2;P2;SDS_P1;SDS_P2;PMS_P1;PMS_P2;Temp;Humidity;BMP_temperature;BMP_pressure;BME280_temperature;BME280_humidity;BME280_pressure;Samples;Min_cycle;Max_cycle;Signal;HPM_P1;HPM_P2
2022/11/20 00:02:57;;;;;;;27.57;16.30;;;;;;;-0.56;93.76;97272.25;6220709;28;20274;-46
2022/11/20 00:06:01;;;;;;;30.00;17.73;;;;;;;-0.55;94.31;97266.16;6218078;28;20354;-46
2022/11/20 00:09:05;;;;;;;26.00;15.70;;;;;;;-0.53;94.64;97246.19;6217100;28;20232;-48
2022/11/20 00:12:07;;;;;;;30.33;16.40;;;;;;;-0.52;94.93;97260.84;6217883;28;20360;-45
2022/11/20 00:15:09;;;;;;;29.53;17.47;;;;;;;-0.51;94.80;97278.09;6218061;28;20707;-48
2022/11/20 00:18:12;;;;;;;29.37;17.50;;;;;;;-0.55;94.89;97282.53;6215447;28;20254;-45
2022/11/20 00:21:19;;;;;;;34.07;19.03;;;;;;;-0.55;95.05;97267.00;6217125;28;20291;-44
2022/11/20 00:24:23;;;;;;;30.00;16.90;;;;;;;-0.56;94.65;97261.88;6211259;28;20232;-44
2022/11/20 00:27:25;;;;;;;32.30;18.80;;;;;;;-0.59;94.65;97270.63;6217817;28;20243;-45
2022/11/20 00:30:27;;;;;;;29.83;19.47;;;;;;;-0.68;93.99;97283.97;6218272;28;20358;-44
2022/11/20 00:33:30;;;;;;;28.10;18.03;;;;;;;-0.73;94.19;97293.69;6217811;28;20242;-44
2022/11/20 00:36:33;;;;;;;29.60;18.07;;;;;;;-0.75;93.96;97285.13;6216256;28;20646;-45
2022/11/20 00:39:35;;;;;;;31.03;19.13;;;;;;;-0.70;94.20;97290.13;6210054;28;20240;-43
2022/11/20 00:42:38;;;;;;;28.63;17.30;;;;;;;-0.64;94.14;97295.88;6216031;28;20243;-44
2022/11/20 00:45:40;;;;;;;29.77;17.90;;;;;;;-0.60;94.45;97297.44;6218502;28;20231;-44
2022/11/20 00:48:43;;;;;;;32.63;19.80;;;;;;;-0.59;94.40;97309.47;6217495;28;20269;-44
2022/11/20 00:51:46;;;;;;;30.07;18.57;;;;;;;-0.59;94.50;97306.88;6211152;28;20232;-44
2022/11/20 00:54:48;;;;;;;30.00;17.87;;;;;;;-0.56;94.44;97314.53;6215814;28;20647;-44
2022/11/20 00:57:50;;;;;;;29.33;17.67;;;;;;;-0.56;93.93;97308.53;6215436;28;20243;-44
2022/11/20 01:00:52;;;;;;;30.33;18.33;;;;;;;-0.56;94.08;97308.53;6212881;28;20326;-49
2022/11/20 01:04:00;;;;;;;29.47;16.97;;;;;;;-0.55;94.55;97305.03;6216153;28;20294;-44
2022/11/20 01:07:03;;;;;;;28.93;17.70;;;;;;;-0.54;94.95;97310.16;6216666;28;20239;-44
2022/11/20 01:10:07;;;;;;;33.77;18.33;;;;;;;-0.52;94.89;97312.69;6215251;28;20244;-44
2022/11/20 01:16:38;;;;;;;31.73;18.20;;;;;;;-0.50;94.72;97305.69;6218517;28;20240;-44
2022/11/20 01:19:40;;;;;;;33.57;18.40;;;;;;;-0.51;95.02;97311.78;6213871;28;20718;-44
2022/11/20 01:22:42;;;;;;;31.30;17.63;;;;;;;-0.52;95.25;97304.91;6211254;28;20274;-44
2022/11/20 01:25:44;;;;;;;31.77;19.53;;;;;;;-0.52;95.19;97300.56;6215327;28;20238;-44
2022/11/20 01:28:47;;;;;;;27.50;17.17;;;;;;;-0.50;95.45;97308.28;6217429;28;20231;-46
2022/11/20 01:31:51;;;;;;;33.07;19.27;;;;;;;-0.47;95.22;97305.53;6216025;28;20370;-45
2022/11/20 01:34:53;;;;;;;26.13;16.50;;;;;;;-0.47;95.43;97308.97;6217350;28;20228;-44
2022/11/20 01:37:55;;;;;;;35.43;19.33;;;;;;;-0.45;95.36;97312.34;6214602;28;20263;-44
2022/11/20 01:40:57;;;;;;;29.73;16.93;;;;;;;-0.45;95.62;97311.50;6214195;28;20298;-44
2022/11/20 01:44:00;;;;;;;30.63;18.13;;;;;;;-0.44;95.72;97308.00;6217948;28;20296;-44
2022/11/20 01:47:06;;;;;;;26.73;17.23;;;;;;;-0.43;95.20;97302.75;6214311;28;20283;-44
2022/11/20 01:50:24;;;;;;;25.77;15.37;;;;;;;-0.44;95.37;97302.81;6211045;28;20276;-44
2022/11/20 01:53:32;;;;;;;26.27;15.97;;;;;;;-0.48;95.20;97302.09;6212895;28;20315;-44
2022/11/20 01:56:38;;;;;;;30.67;18.83;;;;;;;-0.48;95.86;97324.59;6213709;28;20228;-44
2022/11/20 01:59:47;;;;;;;30.13;18.23;;;;;;;-0.50;95.91;97310.88;6210980;28;20281;-44
2022/11/20 02:02:58;;;;;;;30.33;18.37;;;;;;;-0.51;95.58;97312.63;6214292;28;20229;-45
2022/11/20 02:06:16;;;;;;;30.20;18.30;;;;;;;-0.49;95.77;97310.78;6210964;28;20338;-43
2022/11/20 02:09:18;;;;;;;31.47;18.03;;;;;;;-0.48;96.20;97314.22;6208348;28;20229;-45
2022/11/20 02:15:42;;;;;;;28.80;18.07;;;;;;;-0.47;95.81;97321.09;6214736;28;20291;-44
2022/11/20 02:18:45;;;;;;;32.70;19.13;;;;;;;-0.45;96.10;97317.53;6216407;28;20716;-43
2022/11/20 02:21:52;;;;;;;31.13;18.80;;;;;;;-0.44;96.01;97314.03;6211023;28;20231;-47
2022/11/20 02:24:54;;;;;;;30.53;18.80;;;;;;;-0.45;95.88;97311.50;6215190;28;20365;-48
2022/11/20 02:27:57;;;;;;;29.77;17.90;;;;;;;-0.44;95.98;97313.19;6214032;28;20236;-45
2022/11/20 02:30:59;;;;;;;29.97;18.43;;;;;;;-0.45;96.23;97317.53;6215058;28;20242;-44
2022/11/20 02:34:01;;;;;;;32.73;20.13;;;;;;;-0.42;96.11;97314.81;6211046;28;20240;-44
2022/11/20 02:37:03;;;;;;;30.30;17.97;;;;;;;-0.39;96.56;97311.22;6215192;28;20578;-45
2022/11/20 02:40:06;;;;;;;31.90;18.57;;;;;;;-0.38;96.42;97308.56;6216104;28;20236;-44
2022/11/20 02:43:09;;;;;;;30.13;18.73;;;;;;;-0.35;96.31;97310.19;6211766;28;20232;-45
2022/11/20 02:46:11;;;;;;;33.60;19.03;;;;;;;-0.34;96.53;97311.88;6218107;28;20327;-44
2022/11/20 02:49:13;;;;;;;33.83;20.27;;;;;;;-0.31;96.48;97300.56;6219728;28;20224;-43
2022/11/20 02:52:17;;;;;;;30.93;19.20;;;;;;;-0.31;96.55;97298.81;6218360;28;20232;-45
2022/11/20 02:55:19;;;;;;;30.70;17.60;;;;;;;-0.32;96.49;97293.69;6216565;28;20731;-45
2022/11/20 02:58:21;;;;;;;31.87;18.50;;;;;;;-0.32;96.75;97298.88;6215299;28;20267;-48
2022/11/20 03:01:24;;;;;;;30.93;17.30;;;;;;;-0.31;96.88;97295.38;6222404;28;20250;-44
2022/11/20 03:04:27;;;;;;;34.70;20.17;;;;;;;-0.28;96.64;97297.81;6222139;28;20227;-44
2022/11/20 03:07:29;;;;;;;32.47;18.33;;;;;;;-0.27;96.76;97278.75;6219190;28;20774;-44
2022/11/20 03:10:31;;;;;;;36.03;19.80;;;;;;;-0.26;96.21;97268.31;6219471;28;20326;-44
2022/11/20 03:13:35;;;;;;;33.37;19.43;;;;;;;-0.25;96.69;97266.56;6220112;28;20235;-44
2022/11/20 03:16:37;;;;;;;34.47;20.97;;;;;;;-0.26;96.64;97265.72;6217945;28;20236;-44
2022/11/20 03:19:40;;;;;;;36.83;21.00;;;;;;;-0.26;96.91;97262.28;6219501;28;20232;-43
2022/11/20 03:22:42;;;;;;;35.83;20.40;;;;;;;-0.27;97.11;97256.25;6216729;28;20240;-44
2022/11/20 03:25:44;;;;;;;33.63;20.60;;;;;;;-0.27;96.98;97261.44;6220117;28;20242;-48
2022/11/20 03:28:51;;;;;;;37.20;21.67;;;;;;;-0.27;97.27;97266.63;6216696;28;20323;-46
2022/11/20 03:31:53;;;;;;;36.40;20.57;;;;;;;-0.27;97.18;97265.78;6217279;28;20232;-45
2022/11/20 03:34:56;;;;;;;34.20;21.10;;;;;;;-0.29;96.68;97263.25;6219234;28;20650;-49
2022/11/20 03:37:58;;;;;;;37.17;20.97;;;;;;;-0.29;97.22;97265.84;6219156;28;20231;-44
2022/11/20 03:41:05;;;;;;;32.97;19.97;;;;;;;-0.28;96.83;97259.75;6218692;28;20238;-44
2022/11/20 03:44:10;;;;;;;36.57;21.33;;;;;;;-0.28;96.94;97257.16;6212742;28;20744;-45
2022/11/20 03:47:12;;;;;;;34.67;19.40;;;;;;;-0.31;97.06;97257.31;6219089;28;20259;-45
2022/11/20 03:50:14;;;;;;;37.10;21.80;;;;;;;-0.31;97.08;97246.97;6217938;28;20251;-44
2022/11/20 03:53:16;;;;;;;35.07;20.07;;;;;;;-0.31;97.12;97246.97;6214966;28;20366;-44
2022/11/20 03:56:22;;;;;;;38.03;21.70;;;;;;;-0.30;97.04;97240.03;6213058;28;20322;-44
2022/11/20 03:59:24;;;;;;;33.47;19.57;;;;;;;-0.30;97.45;97243.44;6220554;28;20384;-44
2022/11/20 04:02:26;;;;;;;34.30;19.80;;;;;;;-0.30;97.39;97242.63;6216838;28;20325;-44
2022/11/20 04:05:28;;;;;;;35.87;20.67;;;;;;;-0.30;97.53;97230.47;6219431;28;20231;-43
2022/11/20 04:08:31;;;;;;;36.03;21.40;;;;;;;-0.29;97.63;97221.78;6218547;28;20561;-44
2022/11/20 04:11:35;;;;;;;32.33;19.40;;;;;;;-0.27;97.70;97229.50;6218092;28;20671;-44
2022/11/20 04:14:38;;;;;;;35.83;21.20;;;;;;;-0.29;97.33;97228.72;6215370;28;20236;-44
2022/11/20 04:17:40;;;;;;;35.40;20.37;;;;;;;-0.28;97.28;97231.25;6218680;28;20266;-45
2022/11/20 04:20:42;;;;;;;34.17;19.33;;;;;;;-0.25;97.47;97227.69;6218074;28;20276;-48
2022/11/20 04:23:44;;;;;;;33.90;19.73;;;;;;;-0.28;97.30;97218.28;6218954;28;20236;-44
2022/11/20 04:26:46;;;;;;;37.07;18.80;;;;;;;-0.30;97.48;97220.09;6220189;28;20231;-44
2022/11/20 04:29:49;;;;;;;36.33;19.97;;;;;;;-0.30;97.28;97219.28;6216458;28;20835;-45
2022/11/20 04:32:52;;;;;;;39.93;20.50;;;;;;;-0.30;97.07;97214.91;6217701;28;20232;-44
2022/11/20 04:36:01;;;;;;;31.93;17.83;;;;;;;-0.28;97.62;97207.06;6219514;28;20314;-43
2022/11/20 04:39:06;;;;;;;37.30;19.63;;;;;;;-0.28;97.45;97196.69;6218083;28;20597;-44
2022/11/20 04:42:28;;;;;;;34.07;19.83;;;;;;;-0.27;97.42;97193.19;6216862;28;20327;-45
2022/11/20 04:45:30;;;;;;;32.20;19.10;;;;;;;-0.27;97.37;97180.22;6217964;28;20688;-45
2022/11/20 04:48:32;;;;;;;31.17;18.77;;;;;;;-0.31;97.14;97178.72;6217630;28;20317;-44
2022/11/20 04:51:35;;;;;;;32.87;19.47;;;;;;;-0.35;97.26;97188.38;6216189;28;20228;-45
2022/11/20 04:54:37;;;;;;;34.70;19.63;;;;;;;-0.38;97.42;97189.34;6217741;28;20220;-44
2022/11/20 04:57:39;;;;;;;30.60;18.97;;;;;;;-0.40;97.96;97193.75;6216549;28;20319;-43
2022/11/20 05:00:41;;;;;;;33.13;19.87;;;;;;;-0.41;97.46;97193.84;6210864;28;20362;-46
2022/11/20 05:03:44;;;;;;;37.37;21.57;;;;;;;-0.43;98.12;97201.69;6221190;28;20358;-46
2022/11/20 05:06:46;;;;;;;33.20;20.57;;;;;;;-0.44;97.76;97197.41;6215690;28;20361;-44
2022/11/20 05:09:49;;;;;;;34.17;19.50;;;;;;;-0.43;97.97;97191.31;6215544;28;20228;-44
2022/11/20 05:12:51;;;;;;;27.90;16.50;;;;;;;-0.42;97.48;97197.34;6218138;28;20715;-44
2022/11/20 05:15:53;;;;;;;36.70;20.80;;;;;;;-0.42;97.86;97198.19;6214239;28;20282;-44
2022/11/20 05:18:55;;;;;;;33.77;19.97;;;;;;;-0.41;98.16;97197.28;6215384;28;20305;-44
2022/11/20 05:21:57;;;;;;;31.87;20.13;;;;;;;-0.40;98.22;97198.94;6215354;28;20528;-44
2022/11/20 05:25:00;;;;;;;32.37;19.13;;;;;;;-0.38;98.13;97198.88;6212237;28;20294;-44
2022/11/20 05:28:02;;;;;;;34.27;20.43;;;;;;;-0.36;97.80;97191.88;6216938;28;20282;-44
2022/11/20 05:31:09;;;;;;;31.97;18.90;;;;;;;-0.34;97.76;97204.75;6217082;28;20294;-44
2022/11/20 05:34:11;;;;;;;32.40;19.73;;;;;;;-0.37;97.99;97213.50;6210060;28;20260;-44
2022/11/20 05:37:13;;;;;;;36.83;19.33;;;;;;;-0.38;97.91;97201.44;6215411;28;20243;-44
2022/11/20 05:40:15;;;;;;;33.23;18.53;;;;;;;-0.34;98.03;97204.75;6218417;28;20373;-44
2022/11/20 05:43:17;;;;;;;33.00;20.00;;;;;;;-0.31;98.16;97212.41;6214068;28;20314;-44
2022/11/20 05:46:20;;;;;;;35.30;20.53;;;;;;;-0.29;97.44;97202.78;6217315;28;20243;-44
2022/11/20 05:49:29;;;;;;;36.30;22.73;;;;;;;-0.38;97.89;97215.25;6215393;28;20227;-44
2022/11/20 05:52:31;;;;;;;36.87;22.20;;;;;;;-0.43;97.75;97201.69;6206794;28;20597;-44
2022/11/20 05:55:33;;;;;;;35.43;20.70;;;;;;;-0.41;98.05;97199.03;6218236;28;20844;-44
2022/11/20 05:58:35;;;;;;;39.57;20.90;;;;;;;-0.40;98.33;97191.16;6214243;28;20714;-44
2022/11/20 06:01:37;;;;;;;36.27;21.17;;;;;;;-0.39;97.93;97207.53;6219550;28;20259;-45
2022/11/20 06:04:39;;;;;;;38.97;21.87;;;;;;;-0.39;98.59;97208.38;6209502;28;20236;-44
2022/11/20 06:07:41;;;;;;;41.00;21.83;;;;;;;-0.40;98.36;97211.06;6215240;28;20286;-44
2022/11/20 06:10:44;;;;;;;32.77;20.57;;;;;;;-0.44;98.03;97214.69;6214375;28;20236;-45
2022/11/20 06:13:46;;;;;;;35.03;20.93;;;;;;;-0.44;98.26;97218.13;6217503;28;20258;-45
2022/11/20 06:16:49;;;;;;;35.57;22.90;;;;;;;-0.41;98.62;97228.38;6215815;28;20728;-44
2022/11/20 06:19:51;;;;;;;35.07;21.50;;;;;;;-0.40;98.52;97219.66;6216047;28;20271;-44
2022/11/20 06:22:53;;;;;;;38.57;23.13;;;;;;;-0.39;98.67;97223.94;6214635;28;21001;-43
2022/11/20 06:25:55;;;;;;;37.90;21.23;;;;;;;-0.36;98.24;97233.34;6219134;28;20232;-45
2022/11/20 06:28:57;;;;;;;33.60;21.23;;;;;;;-0.34;98.95;97233.28;6218571;28;20232;-45
2022/11/20 06:31:59;;;;;;;40.77;22.33;;;;;;;-0.31;99.14;97233.16;6216794;28;20315;-45
2022/11/20 06:35:01;;;;;;;31.43;19.50;;;;;;;-0.27;98.92;97239.88;6217350;28;20362;-44
2022/11/20 06:38:03;;;;;;;33.47;20.43;;;;;;;-0.26;98.46;97237.22;6220433;28;20319;-44
2022/11/20 06:41:09;;;;;;;36.60;20.47;;;;;;;-0.22;98.55;97253.47;6217555;28;20227;-45
2022/11/20 06:44:11;;;;;;;38.17;21.57;;;;;;;-0.22;98.56;97256.91;6218048;28;20784;-44
2022/11/20 06:47:13;;;;;;;34.83;20.57;;;;;;;-0.18;98.82;97255.84;6220516;28;20258;-44
2022/11/20 06:50:15;;;;;;;36.90;22.43;;;;;;;-0.16;98.59;97260.97;6220905;28;20285;-44
2022/11/20 06:53:18;;;;;;;39.03;21.60;;;;;;;-0.15;99.29;97273.88;6213364;28;20231;-44
2022/11/20 06:56:20;;;;;;;33.37;20.97;;;;;;;-0.13;98.80;97273.81;6219597;28;20678;-44
2022/11/20 06:59:22;;;;;;;33.23;21.23;;;;;;;-0.10;98.48;97271.09;6213217;28;20243;-44
2022/11/20 07:02:25;;;;;;;39.67;22.77;;;;;;;-0.10;98.80;97277.09;6221960;28;20719;-45
2022/11/20 07:05:33;;;;;;;31.93;21.17;;;;;;;-0.10;98.72;97277.09;6219942;28;20239;-44
2022/11/20 07:08:36;;;;;;;36.03;21.93;;;;;;;-0.09;98.63;97276.19;6221876;28;20239;-44
2022/11/20 07:11:38;;;;;;;34.87;20.30;;;;;;;-0.10;98.67;97279.69;6218359;28;20306;-45
2022/11/20 07:14:41;;;;;;;37.77;21.87;;;;;;;-0.09;98.61;97283.13;6213059;28;20739;-46
2022/11/20 07:17:43;;;;;;;35.17;21.73;;;;;;;-0.05;98.19;97284.69;6219507;28;20309;-45
2022/11/20 07:20:45;;;;;;;35.73;21.33;;;;;;;-0.02;98.25;97285.41;6220310;28;20255;-44
2022/11/20 07:23:47;;;;;;;39.63;22.43;;;;;;;0.04;98.65;97279.09;6216955;28;20615;-45
2022/11/20 07:26:50;;;;;;;37.97;22.90;;;;;;;0.09;98.62;97284.09;6207272;28;20277;-46
2022/11/20 07:29:52;;;;;;;37.67;22.03;;;;;;;0.13;98.21;97290.78;6218203;28;20240;-45
2022/11/20 07:32:55;;;;;;;39.30;22.90;;;;;;;0.16;98.69;97290.66;6218901;28;20251;-46
2022/11/20 07:35:59;;;;;;;39.60;23.27;;;;;;;0.18;98.33;97281.06;6218992;28;20322;-44
2022/11/20 07:39:01;;;;;;;35.07;20.57;;;;;;;0.20;98.55;97294.81;6219098;28;20231;-43
2022/11/20 07:42:04;;;;;;;37.73;21.70;;;;;;;0.23;98.41;97305.88;6215880;28;20225;-43
2022/11/20 07:45:07;;;;;;;40.50;22.87;;;;;;;0.24;98.25;97302.38;6219246;28;20243;-43
2022/11/20 07:48:09;;;;;;;35.60;21.50;;;;;;;0.26;98.21;97308.34;6218524;28;20217;-44
2022/11/20 07:51:13;;;;;;;39.73;22.20;;;;;;;0.27;98.20;97312.63;6219439;28;20254;-44
2022/11/20 07:54:15;;;;;;;38.80;24.13;;;;;;;0.30;98.37;97314.25;6216535;28;20618;-44
2022/11/20 07:57:17;;;;;;;36.00;22.30;;;;;;;0.31;98.11;97314.16;6214803;28;20299;-43
2022/11/20 08:00:19;;;;;;;36.80;21.50;;;;;;;0.37;98.58;97315.66;6217220;28;20479;-44
2022/11/20 08:03:21;;;;;;;43.37;24.03;;;;;;;0.38;98.13;97312.16;6219897;28;20367;-43
2022/11/20 08:06:26;;;;;;;37.03;21.80;;;;;;;0.39;97.73;97310.41;6209715;28;20237;-43
2022/11/20 08:09:28;;;;;;;37.07;21.60;;;;;;;0.44;97.89;97305.81;6218279;28;20735;-44
2022/11/20 08:15:51;;;;;;;37.90;22.33;;;;;;;0.45;97.82;97303.16;6217076;28;20224;-46
2022/11/20 08:18:53;;;;;;;37.40;22.90;;;;;;;0.46;97.26;97309.19;6218723;28;20314;-48
2022/11/20 08:21:55;;;;;;;36.43;21.60;;;;;;;0.44;97.35;97313.59;6217156;28;20310;-43
2022/11/20 08:24:58;;;;;;;37.07;21.70;;;;;;;0.44;97.72;97314.44;6215956;28;20335;-43
2022/11/20 08:28:07;;;;;;;39.60;23.63;;;;;;;0.49;97.66;97317.69;6219072;28;20233;-44
2022/11/20 08:31:23;;;;;;;37.83;22.33;;;;;;;0.55;97.45;97326.94;6214526;28;20619;-43
2022/11/20 08:34:25;;;;;;;37.47;22.33;;;;;;;0.62;97.13;97317.94;6212616;28;20593;-43
2022/11/20 08:37:27;;;;;;;36.80;22.53;;;;;;;0.74;96.89;97328.59;6214836;28;20632;-43
2022/11/20 08:40:29;;;;;;;39.63;22.63;;;;;;;0.83;96.66;97319.53;6214561;28;20236;-43
2022/11/20 08:43:31;;;;;;;41.53;24.70;;;;;;;0.83;95.33;97319.53;6216243;28;20242;-44
2022/11/20 08:46:39;;;;;;;36.60;22.17;;;;;;;0.81;95.03;97323.94;6216434;28;20231;-43
2022/11/20 08:49:41;;;;;;;36.83;23.20;;;;;;;0.84;95.19;97325.56;6217168;28;20323;-44
2022/11/20 08:52:43;;;;;;;38.30;23.67;;;;;;;0.85;95.23;97330.69;6209280;28;20318;-43
2022/11/20 08:55:46;;;;;;;38.40;22.67;;;;;;;0.87;94.67;97325.44;6217546;28;20231;-44
2022/11/20 08:58:50;;;;;;;34.57;21.10;;;;;;;0.90;94.04;97322.72;6215367;28;20234;-43
2022/11/20 09:02:12;;;;;;;35.13;22.33;;;;;;;0.99;93.58;97317.06;6214538;28;20514;-43
2022/11/20 09:05:14;;;;;;;39.47;23.47;;;;;;;1.20;93.52;97316.00;6217854;28;20231;-43
2022/11/20 09:08:16;;;;;;;37.97;22.83;;;;;;;1.50;92.68;97316.25;6215993;28;20242;-43
2022/11/20 09:11:18;;;;;;;33.57;21.90;;;;;;;1.62;91.75;97315.63;6217006;28;20331;-42
2022/11/20 09:14:21;;;;;;;37.33;22.70;;;;;;;1.74;91.29;97315.03;6215281;28;20237;-44
2022/11/20 09:17:23;;;;;;;37.57;23.40;;;;;;;1.93;90.33;97309.72;6210090;28;20623;-43
2022/11/20 09:20:26;;;;;;;35.40;23.57;;;;;;;2.04;88.87;97309.16;6215364;28;20236;-42
2022/11/20 09:23:33;;;;;;;36.43;23.20;;;;;;;2.09;87.87;97299.34;6212832;28;20236;-43
2022/11/20 09:26:35;;;;;;;35.43;22.70;;;;;;;2.06;87.64;97296.91;6212738;28;20395;-43
2022/11/20 09:29:38;;;;;;;34.93;22.10;;;;;;;1.95;88.41;97294.03;6217082;28;20247;-42
2022/11/20 09:32:40;;;;;;;36.10;22.70;;;;;;;1.78;88.15;97298.34;6216405;28;20217;-42
2022/11/20 09:35:44;;;;;;;35.47;21.73;;;;;;;1.66;88.85;97303.31;6216947;28;20243;-42
2022/11/20 09:38:47;;;;;;;36.07;21.90;;;;;;;1.64;89.53;97298.19;6216463;28;20238;-44
2022/11/20 09:41:52;;;;;;;38.03;22.10;;;;;;;1.65;90.15;97292.09;6214882;28;20309;-42
2022/11/20 09:45:05;;;;;;;40.50;21.73;;;;;;;1.63;90.26;97286.09;6215059;28;20242;-43
2022/11/20 09:48:20;;;;;;;32.97;21.10;;;;;;;1.65;90.84;97291.25;6210997;28;20234;-42
2022/11/20 09:51:53;;;;;;;33.40;22.20;;;;;;;1.88;90.70;97285.72;6214855;28;20323;-44
2022/11/20 09:54:56;;;;;;;36.80;22.50;;;;;;;2.12;90.50;97289.59;6213139;28;20237;-42
2022/11/20 09:57:59;;;;;;;35.37;22.17;;;;;;;2.18;89.75;97291.06;6214857;28;20792;-42
2022/11/20 10:01:11;;;;;;;37.17;23.07;;;;;;;2.28;89.40;97281.00;6218971;28;20249;-43
2022/11/20 10:04:18;;;;;;;38.03;23.13;;;;;;;2.36;88.90;97277.06;6217240;28;20245;-43
2022/11/20 10:07:27;;;;;;;36.00;22.67;;;;;;;2.46;88.41;97275.63;6215331;28;20756;-42
2022/11/20 10:11:01;;;;;;;34.73;21.73;;;;;;;2.47;87.31;97266.06;6214237;28;20237;-42
2022/11/20 10:14:28;;;;;;;32.97;23.07;;;;;;;2.46;87.58;97269.59;6215286;28;20593;-42
2022/11/20 10:18:03;;;;;;;35.53;22.03;;;;;;;2.43;87.06;97272.34;6216178;28;20366;-42
2022/11/20 10:21:29;;;;;;;32.57;21.83;;;;;;;2.41;87.57;97266.38;6141025;28;20719;-42
2022/11/20 10:24:34;;;;;;;36.60;22.80;;;;;;;2.45;88.37;97270.50;6135212;28;20239;-43
2022/11/20 10:28:13;;;;;;;33.70;22.70;;;;;;;2.54;87.84;97263.03;6135451;28;20232;-42
2022/11/20 10:31:33;;;;;;;33.73;22.40;;;;;;;2.62;88.04;97261.75;6141897;28;20402;-42
2022/11/20 10:34:41;;;;;;;34.33;20.80;;;;;;;2.68;87.63;97267.50;6140213;28;20235;-43
2022/11/20 10:37:53;;;;;;;36.40;22.23;;;;;;;2.83;87.39;97256.19;6140096;28;20738;-42
2022/11/20 10:48:10;;;;;;;34.07;22.33;;;;;;;2.93;86.52;97254.75;6140763;28;20750;-42
2022/11/20 10:51:17;;;;;;;34.10;22.20;;;;;;;2.93;86.07;97257.34;6139429;28;20240;-43
2022/11/20 10:54:39;;;;;;;36.37;21.83;;;;;;;2.94;85.64;97260.81;6122885;28;20235;-44
2022/11/20 10:57:56;;;;;;;37.53;22.23;;;;;;;2.95;85.87;97252.06;6167638;28;20670;-42
2022/11/20 11:01:26;;;;;;;35.93;22.00;;;;;;;3.08;86.13;97253.06;6209497;28;20254;-42
2022/11/20 11:04:28;;;;;;;37.33;22.90;;;;;;;3.20;86.79;97246.25;6216678;28;20373;-42
2022/11/20 11:07:36;;;;;;;37.97;21.33;;;;;;;3.40;86.70;97245.94;6213721;28;20697;-43
2022/11/20 11:11:08;;;;;;;32.53;22.23;;;;;;;3.62;87.35;97233.31;6218758;28;20241;-42
2022/11/20 11:14:13;;;;;;;33.90;21.57;;;;;;;3.79;87.22;97234.09;6211404;28;20577;-41
2022/11/20 11:17:34;;;;;;;31.67;21.00;;;;;;;3.91;86.36;97228.94;6214469;28;20312;-42
2022/11/20 11:20:36;;;;;;;31.50;20.90;;;;;;;3.98;86.43;97232.06;6216096;28;20288;-42
2022/11/20 11:23:42;;;;;;;30.77;19.80;;;;;;;4.13;86.49;97232.88;6216161;28;20237;-42
2022/11/20 11:26:56;;;;;;;33.93;21.27;;;;;;;4.26;87.05;97234.63;6214006;28;20228;-43
2022/11/20 11:30:12;;;;;;;34.47;22.20;;;;;;;4.49;85.68;97227.97;6216810;28;20236;-42
2022/11/20 11:33:27;;;;;;;31.47;20.90;;;;;;;4.85;84.44;97223.94;6215569;28;20258;-42
2022/11/20 11:36:30;;;;;;;34.13;20.50;;;;;;;4.95;82.38;97227.63;6216339;28;20239;-42
2022/11/20 11:39:33;;;;;;;31.40;19.93;;;;;;;5.10;81.79;97227.44;6213650;28;20235;-42
2022/11/20 11:42:46;;;;;;;31.63;20.60;;;;;;;5.25;81.48;97215.16;6216004;28;20354;-42
2022/11/20 11:45:55;;;;;;;31.40;21.10;;;;;;;5.27;81.93;97218.50;6215898;28;20239;-43
2022/11/20 11:49:05;;;;;;;34.13;21.93;;;;;;;5.35;82.34;97212.75;6214097;28;20227;-42
2022/11/20 11:52:16;;;;;;;30.37;20.27;;;;;;;5.47;83.07;97201.47;6212907;28;20239;-42
2022/11/20 11:55:56;;;;;;;29.63;21.17;;;;;;;5.74;82.97;97196.13;6207397;28;20338;-43
2022/11/20 11:59:06;;;;;;;29.20;19.53;;;;;;;6.11;81.36;97183.97;6214015;28;20228;-43
2022/11/20 12:02:29;;;;;;;31.37;20.80;;;;;;;6.23;81.60;97183.94;6218972;28;20267;-43
2022/11/20 12:05:39;;;;;;;27.37;19.27;;;;;;;6.27;80.81;97180.19;6216831;28;20247;-43
2022/11/20 12:08:55;;;;;;;29.63;20.53;;;;;;;6.42;81.39;97180.84;6212641;28;20582;-45
2022/11/20 12:12:22;;;;;;;28.83;20.47;;;;;;;6.70;81.87;97178.84;6212997;28;20240;-46
2022/11/20 12:15:34;;;;;;;28.00;20.37;;;;;;;6.76;80.83;97174.03;6216100;28;20673;-43
2022/11/20 12:18:37;;;;;;;26.07;18.97;;;;;;;6.82;80.58;97177.97;6213765;28;20242;-43
2022/11/20 12:22:13;;;;;;;21.50;16.07;;;;;;;6.81;81.43;97179.75;6219436;28;20229;-44
2022/11/20 12:25:35;;;;;;;13.37;8.53;;;;;;;7.14;81.29;97183.47;6215692;28;20234;-44
2022/11/20 12:28:57;;;;;;;8.73;7.10;;;;;;;7.53;79.22;97188.34;6217588;28;20232;-44
2022/11/20 12:32:09;;;;;;;2.83;2.40;;;;;;;8.12;75.81;97185.53;6216577;28;20227;-44
2022/11/20 12:35:41;;;;;;;2.93;2.13;;;;;;;8.64;73.68;97186.69;6216501;28;20319;-44
2022/11/20 12:38:59;;;;;;;2.83;2.20;;;;;;;9.50;69.10;97187.41;6208292;28;20268;-44
2022/11/20 12:46:00;;;;;;;3.43;1.47;;;;;;;13.38;52.80;97170.09;6197147;28;20252;-44
2022/11/20 12:49:18;;;;;;;1.80;1.40;;;;;;;14.75;48.82;97170.13;6212669;28;20239;-44
2022/11/20 12:52:39;;;;;;;1.90;1.30;;;;;;;16.20;47.20;97171.16;6213227;28;20244;-44
2022/11/20 12:56:04;;;;;;;2.00;1.40;;;;;;;16.30;43.97;97170.13;6215739;28;20265;-44
2022/11/20 12:59:16;;;;;;;1.83;1.20;;;;;;;13.89;48.91;97173.81;6212880;28;20252;-44
2022/11/20 13:02:19;;;;;;;2.53;1.37;;;;;;;11.17;56.67;97176.34;6219768;28;20228;-43
2022/11/20 13:05:31;;;;;;;1.40;1.20;;;;;;;9.45;61.76;97178.22;6209647;28;20232;-43
2022/11/20 13:08:38;;;;;;;1.43;1.30;;;;;;;8.20;66.06;97182.28;6207894;28;20726;-43
2022/11/20 13:12:08;;;;;;;1.47;1.00;;;;;;;7.68;67.94;97181.94;6214583;28;20745;-43
2022/11/20 13:15:43;;;;;;;2.40;1.50;;;;;;;7.19;71.82;97179.53;6215798;28;20692;-43
2022/11/20 13:18:47;;;;;;;1.53;1.43;;;;;;;6.69;75.16;97175.38;6217310;28;20231;-43
2022/11/20 13:21:50;;;;;;;1.47;1.33;;;;;;;6.12;77.78;97181.25;6217746;28;20358;-43
2022/11/20 13:24:53;;;;;;;1.77;1.30;;;;;;;6.00;79.09;97186.50;6209871;28;20258;-43
2022/11/20 13:27:58;;;;;;;1.20;1.10;;;;;;;5.97;79.30;97176.25;6213271;28;20227;-43
2022/11/20 13:31:00;;;;;;;1.83;1.30;;;;;;;5.87;80.09;97173.41;6213829;28;20318;-44
2022/11/20 13:34:06;;;;;;;2.33;1.30;;;;;;;5.70;81.18;97179.78;6216600;28;20273;-43
2022/11/20 13:37:26;;;;;;;1.30;1.17;;;;;;;5.67;81.81;97174.78;6216754;28;20789;-43
2022/11/20 13:40:28;;;;;;;1.60;1.50;;;;;;;5.64;83.39;97172.38;6215111;28;20237;-43
2022/11/20 13:43:37;;;;;;;1.70;1.40;;;;;;;5.59;83.72;97158.75;6215111;28;20599;-44
2022/11/20 13:46:47;;;;;;;3.23;1.20;;;;;;;5.57;84.24;97163.28;6217075;28;20240;-43
2022/11/20 13:49:51;;;;;;;2.00;1.20;;;;;;;5.69;82.24;97153.75;6216596;28;20734;-43
2022/11/20 13:53:32;;;;;;;1.80;1.27;;;;;;;5.71;82.88;97155.28;6210958;28;20229;-43
2022/11/20 13:56:51;;;;;;;1.50;1.40;;;;;;;5.53;84.42;97152.16;6212702;28;20634;-43
2022/11/20 13:59:58;;;;;;;3.33;1.47;;;;;;;5.41;85.91;97160.00;6216169;28;20234;-43
2022/11/20 14:03:12;;;;;;;2.20;1.10;;;;;;;5.27;86.05;97155.72;6217516;28;20651;-43
2022/11/20 14:06:32;;;;;;;3.13;1.10;;;;;;;5.16;86.55;97158.22;6219135;28;20641;-43
2022/11/20 14:09:35;;;;;;;1.53;1.10;;;;;;;5.07;87.13;97156.22;6212690;28;20237;-43
2022/11/20 14:12:38;;;;;;;3.33;1.60;;;;;;;5.07;87.78;97151.00;6216768;28;20231;-43
2022/11/20 14:15:43;;;;;;;1.30;1.20;;;;;;;5.05;87.45;97160.72;6216222;28;20234;-44
2022/11/20 14:18:47;;;;;;;2.33;1.33;;;;;;;4.94;87.37;97145.75;6211412;28;20350;-43
2022/11/20 14:21:53;;;;;;;1.33;1.00;;;;;;;4.82;88.31;97149.16;6216874;28;20690;-43
2022/11/20 14:25:05;;;;;;;1.30;1.17;;;;;;;4.71;89.14;97149.00;6213625;28;20244;-44
2022/11/20 14:28:39;;;;;;;1.73;1.13;;;;;;;4.53;89.47;97145.81;6214194;28;20652;-44
2022/11/20 14:31:45;;;;;;;3.17;1.60;;;;;;;4.30;90.07;97151.69;6210973;28;20242;-45
2022/11/20 14:35:08;;;;;;;1.73;1.20;;;;;;;4.01;90.49;97146.53;6213193;28;20316;-43
2022/11/20 14:38:17;;;;;;;1.70;1.20;;;;;;;3.81;91.37;97146.09;6209314;28;20244;-43
2022/11/20 14:41:22;;;;;;;1.77;1.20;;;;;;;3.60;92.24;97149.06;6218915;28;20232;-44
2022/11/20 14:44:35;;;;;;;2.30;1.43;;;;;;;3.39;92.79;97147.81;6219427;28;20230;-43
2022/11/20 14:47:41;;;;;;;1.40;1.20;;;;;;;3.12;92.75;97152.88;6214816;28;20678;-44
2022/11/20 14:50:45;;;;;;;1.43;1.20;;;;;;;2.94;93.64;97149.56;6221244;28;20243;-43